sensor_id;sensor_type;location;lat;lon;timestamp;temperature;humidity
77693;SHT31;66984;47.404;18.836;2023-04-25T00:00:11;13.43;70.05
77693;SHT31;66984;47.404;18.836;2023-04-25T00:01:14;13.40;70.33
77693;SHT31;66984;47.404;18.836;2023-04-25T00:02:17;13.39;70.26
77693;SHT31;66984;47.404;18.836;2023-04-25T00:03:20;13.42;70.27
77693;SHT31;66984;47.404;18.836;2023-04-25T00:04:24;13.44;70.27
77693;SHT31;66984;47.404;18.836;2023-04-25T00:05:28;13.42;70.24
77693;SHT31;66984;47.404;18.836;2023-04-25T00:06:32;13.43;70.03
77693;SHT31;66984;47.404;18.836;2023-04-25T00:07:38;13.46;70.20
77693;SHT31;66984;47.404;18.836;2023-04-25T00:08:42;13.46;70.31
77693;SHT31;66984;47.404;18.836;2023-04-25T00:09:44;13.50;70.29
77693;SHT31;66984;47.404;18.836;2023-04-25T00:10:47;13.46;70.31
77693;SHT31;66984;47.404;18.836;2023-04-25T00:11:51;13.44;70.53
77693;SHT31;66984;47.404;18.836;2023-04-25T00:12:54;13.47;70.45
77693;SHT31;66984;47.404;18.836;2023-04-25T00:13:57;13.44;70.37
77693;SHT31;66984;47.404;18.836;2023-04-25T00:15:00;13.42;70.41
77693;SHT31;66984;47.404;18.836;2023-04-25T00:16:03;13.42;70.37
77693;SHT31;66984;47.404;18.836;2023-04-25T00:17:06;13.40;70.57
77693;SHT31;66984;47.404;18.836;2023-04-25T00:18:09;13.42;70.52
77693;SHT31;66984;47.404;18.836;2023-04-25T00:19:14;13.39;70.54
77693;SHT31;66984;47.404;18.836;2023-04-25T00:20:16;13.42;70.68
77693;SHT31;66984;47.404;18.836;2023-04-25T00:21:20;13.36;70.79
77693;SHT31;66984;47.404;18.836;2023-04-25T00:22:23;13.37;70.86
77693;SHT31;66984;47.404;18.836;2023-04-25T00:23:26;13.37;70.88
77693;SHT31;66984;47.404;18.836;2023-04-25T00:24:29;13.35;71.13
77693;SHT31;66984;47.404;18.836;2023-04-25T00:25:32;13.30;71.29
77693;SHT31;66984;47.404;18.836;2023-04-25T00:26:35;13.29;71.31
77693;SHT31;66984;47.404;18.836;2023-04-25T00:27:38;13.27;71.53
77693;SHT31;66984;47.404;18.836;2023-04-25T00:28:41;13.27;71.71
77693;SHT31;66984;47.404;18.836;2023-04-25T00:29:44;13.30;71.78
77693;SHT31;66984;47.404;18.836;2023-04-25T00:30:47;13.29;71.85
77693;SHT31;66984;47.404;18.836;2023-04-25T00:31:50;13.26;71.96
77693;SHT31;66984;47.404;18.836;2023-04-25T00:32:53;13.23;72.00
77693;SHT31;66984;47.404;18.836;2023-04-25T00:33:56;13.26;72.11
77693;SHT31;66984;47.404;18.836;2023-04-25T00:34:59;13.29;72.04
77693;SHT31;66984;47.404;18.836;2023-04-25T00:36:02;13.23;72.28
77693;SHT31;66984;47.404;18.836;2023-04-25T00:37:05;13.27;72.10
77693;SHT31;66984;47.404;18.836;2023-04-25T00:38:08;13.26;72.05
77693;SHT31;66984;47.404;18.836;2023-04-25T00:39:11;13.27;72.06
77693;SHT31;66984;47.404;18.836;2023-04-25T00:40:14;13.24;72.04
77693;SHT31;66984;47.404;18.836;2023-04-25T00:41:18;13.26;72.16
77693;SHT31;66984;47.404;18.836;2023-04-25T00:42:21;13.29;72.28
77693;SHT31;66984;47.404;18.836;2023-04-25T00:43:26;13.29;72.18
77693;SHT31;66984;47.404;18.836;2023-04-25T00:44:29;13.27;72.17
77693;SHT31;66984;47.404;18.836;2023-04-25T00:45:37;13.24;72.02
77693;SHT31;66984;47.404;18.836;2023-04-25T00:46:41;13.26;72.07
77693;SHT31;66984;47.404;18.836;2023-04-25T00:47:45;13.26;72.10
77693;SHT31;66984;47.404;18.836;2023-04-25T00:48:48;13.23;72.16
77693;SHT31;66984;47.404;18.836;2023-04-25T00:49:51;13.26;72.17
77693;SHT31;66984;47.404;18.836;2023-04-25T00:50:59;13.22;72.13
77693;SHT31;66984;47.404;18.836;2023-04-25T00:52:02;13.17;72.41
77693;SHT31;66984;47.404;18.836;2023-04-25T00:53:06;13.16;72.43
77693;SHT31;66984;47.404;18.836;2023-04-25T00:54:10;13.16;72.33
77693;SHT31;66984;47.404;18.836;2023-04-25T00:55:13;13.10;72.43
77693;SHT31;66984;47.404;18.836;2023-04-25T00:56:16;13.12;72.41
77693;SHT31;66984;47.404;18.836;2023-04-25T00:57:19;13.15;72.34
77693;SHT31;66984;47.404;18.836;2023-04-25T00:58:22;13.12;72.34
77693;SHT31;66984;47.404;18.836;2023-04-25T00:59:25;13.03;72.32
77693;SHT31;66984;47.404;18.836;2023-04-25T01:00:29;13.05;71.99
77693;SHT31;66984;47.404;18.836;2023-04-25T01:01:33;13.05;72.05
77693;SHT31;66984;47.404;18.836;2023-04-25T01:02:36;13.00;72.08
77693;SHT31;66984;47.404;18.836;2023-04-25T01:03:40;12.99;72.01
77693;SHT31;66984;47.404;18.836;2023-04-25T01:04:47;12.98;71.78
77693;SHT31;66984;47.404;18.836;2023-04-25T01:05:50;13.02;71.67
77693;SHT31;66984;47.404;18.836;2023-04-25T01:06:54;13.00;71.49
77693;SHT31;66984;47.404;18.836;2023-04-25T01:07:57;13.00;71.10
77693;SHT31;66984;47.404;18.836;2023-04-25T01:08:59;12.96;71.26
77693;SHT31;66984;47.404;18.836;2023-04-25T01:10:03;12.95;71.30
77693;SHT31;66984;47.404;18.836;2023-04-25T01:11:06;12.93;71.22
77693;SHT31;66984;47.404;18.836;2023-04-25T01:12:09;12.93;70.96
77693;SHT31;66984;47.404;18.836;2023-04-25T01:13:12;12.89;70.97
77693;SHT31;66984;47.404;18.836;2023-04-25T01:14:15;12.87;70.88
77693;SHT31;66984;47.404;18.836;2023-04-25T01:15:18;12.88;70.99
77693;SHT31;66984;47.404;18.836;2023-04-25T01:16:22;12.88;70.77
77693;SHT31;66984;47.404;18.836;2023-04-25T01:17:27;12.85;70.75
77693;SHT31;66984;47.404;18.836;2023-04-25T01:18:30;12.87;70.69
77693;SHT31;66984;47.404;18.836;2023-04-25T01:19:33;12.85;70.72
77693;SHT31;66984;47.404;18.836;2023-04-25T01:20:37;12.87;70.71
77693;SHT31;66984;47.404;18.836;2023-04-25T01:21:41;12.85;70.60
77693;SHT31;66984;47.404;18.836;2023-04-25T01:22:43;12.84;70.55
77693;SHT31;66984;47.404;18.836;2023-04-25T01:23:47;12.87;70.58
77693;SHT31;66984;47.404;18.836;2023-04-25T01:24:50;12.87;70.38
77693;SHT31;66984;47.404;18.836;2023-04-25T01:25:53;12.84;70.42
77693;SHT31;66984;47.404;18.836;2023-04-25T01:26:58;12.84;70.34
77693;SHT31;66984;47.404;18.836;2023-04-25T01:28:01;12.81;70.13
77693;SHT31;66984;47.404;18.836;2023-04-25T01:29:04;12.82;70.22
77693;SHT31;66984;47.404;18.836;2023-04-25T01:30:07;12.85;70.03
77693;SHT31;66984;47.404;18.836;2023-04-25T01:31:11;12.79;69.94
77693;SHT31;66984;47.404;18.836;2023-04-25T01:32:15;12.85;69.67
77693;SHT31;66984;47.404;18.836;2023-04-25T01:33:19;12.82;69.40
77693;SHT31;66984;47.404;18.836;2023-04-25T01:34:24;12.87;69.29
77693;SHT31;66984;47.404;18.836;2023-04-25T01:35:27;12.84;69.50
77693;SHT31;66984;47.404;18.836;2023-04-25T01:36:30;12.88;69.45
77693;SHT31;66984;47.404;18.836;2023-04-25T01:37:33;12.81;69.34
77693;SHT31;66984;47.404;18.836;2023-04-25T01:38:36;12.84;69.18
77693;SHT31;66984;47.404;18.836;2023-04-25T01:39:39;12.81;69.17
77693;SHT31;66984;47.404;18.836;2023-04-25T01:40:44;12.81;68.71
77693;SHT31;66984;47.404;18.836;2023-04-25T01:41:47;12.84;68.47
77693;SHT31;66984;47.404;18.836;2023-04-25T01:42:51;12.81;68.68
77693;SHT31;66984;47.404;18.836;2023-04-25T01:43:55;12.78;68.47
77693;SHT31;66984;47.404;18.836;2023-04-25T01:44:58;12.78;68.46
77693;SHT31;66984;47.404;18.836;2023-04-25T01:46:02;12.81;68.27
77693;SHT31;66984;47.404;18.836;2023-04-25T01:47:05;12.78;68.21
77693;SHT31;66984;47.404;18.836;2023-04-25T01:48:12;12.75;68.30
77693;SHT31;66984;47.404;18.836;2023-04-25T01:49:15;12.72;67.80
77693;SHT31;66984;47.404;18.836;2023-04-25T01:50:19;12.75;67.70
77693;SHT31;66984;47.404;18.836;2023-04-25T01:51:22;12.75;67.64
77693;SHT31;66984;47.404;18.836;2023-04-25T01:52:25;12.75;67.33
77693;SHT31;66984;47.404;18.836;2023-04-25T01:53:28;12.69;67.19
77693;SHT31;66984;47.404;18.836;2023-04-25T01:54:31;12.69;66.95
77693;SHT31;66984;47.404;18.836;2023-04-25T01:55:34;12.68;66.90
77693;SHT31;66984;47.404;18.836;2023-04-25T01:56:37;12.62;66.62
77693;SHT31;66984;47.404;18.836;2023-04-25T01:57:40;12.64;66.63
77693;SHT31;66984;47.404;18.836;2023-04-25T01:58:44;12.69;66.77
77693;SHT31;66984;47.404;18.836;2023-04-25T01:59:47;12.68;66.82
77693;SHT31;66984;47.404;18.836;2023-04-25T02:00:50;12.67;66.58
77693;SHT31;66984;47.404;18.836;2023-04-25T02:01:53;12.65;66.34
77693;SHT31;66984;47.404;18.836;2023-04-25T02:02:58;12.61;66.57
77693;SHT31;66984;47.404;18.836;2023-04-25T02:04:02;12.67;66.55
77693;SHT31;66984;47.404;18.836;2023-04-25T02:05:05;12.68;66.16
77693;SHT31;66984;47.404;18.836;2023-04-25T02:06:08;12.71;66.33
77693;SHT31;66984;47.404;18.836;2023-04-25T02:07:11;12.71;66.40
77693;SHT31;66984;47.404;18.836;2023-04-25T02:08:16;12.62;66.34
77693;SHT31;66984;47.404;18.836;2023-04-25T02:09:19;12.57;66.58
77693;SHT31;66984;47.404;18.836;2023-04-25T02:10:22;12.51;66.59
77693;SHT31;66984;47.404;18.836;2023-04-25T02:11:25;12.55;66.73
77693;SHT31;66984;47.404;18.836;2023-04-25T02:12:28;12.57;66.43
77693;SHT31;66984;47.404;18.836;2023-04-25T02:13:31;12.59;66.57
77693;SHT31;66984;47.404;18.836;2023-04-25T02:14:34;12.58;66.66
77693;SHT31;66984;47.404;18.836;2023-04-25T02:15:37;12.55;66.56
77693;SHT31;66984;47.404;18.836;2023-04-25T02:16:40;12.57;66.57
77693;SHT31;66984;47.404;18.836;2023-04-25T02:17:43;12.61;66.69
77693;SHT31;66984;47.404;18.836;2023-04-25T02:18:47;12.61;66.58
77693;SHT31;66984;47.404;18.836;2023-04-25T02:19:50;12.59;66.42
77693;SHT31;66984;47.404;18.836;2023-04-25T02:20:53;12.57;66.63
77693;SHT31;66984;47.404;18.836;2023-04-25T02:21:56;12.59;66.55
77693;SHT31;66984;47.404;18.836;2023-04-25T02:22:59;12.57;66.67
77693;SHT31;66984;47.404;18.836;2023-04-25T02:24:03;12.54;66.45
77693;SHT31;66984;47.404;18.836;2023-04-25T02:25:06;12.52;66.53
77693;SHT31;66984;47.404;18.836;2023-04-25T02:26:09;12.55;66.56
77693;SHT31;66984;47.404;18.836;2023-04-25T02:27:13;12.47;66.61
77693;SHT31;66984;47.404;18.836;2023-04-25T02:28:16;12.48;66.85
77693;SHT31;66984;47.404;18.836;2023-04-25T02:29:19;12.48;67.01
77693;SHT31;66984;47.404;18.836;2023-04-25T02:30:22;12.52;66.95
77693;SHT31;66984;47.404;18.836;2023-04-25T02:31:25;12.52;66.94
77693;SHT31;66984;47.404;18.836;2023-04-25T02:32:28;12.51;67.01
77693;SHT31;66984;47.404;18.836;2023-04-25T02:33:31;12.48;66.95
77693;SHT31;66984;47.404;18.836;2023-04-25T02:34:34;12.50;66.74
77693;SHT31;66984;47.404;18.836;2023-04-25T02:35:37;12.38;66.94
77693;SHT31;66984;47.404;18.836;2023-04-25T02:36:40;12.41;67.03
77693;SHT31;66984;47.404;18.836;2023-04-25T02:37:43;12.42;67.01
77693;SHT31;66984;47.404;18.836;2023-04-25T02:38:46;12.41;67.02
77693;SHT31;66984;47.404;18.836;2023-04-25T02:39:49;12.44;67.00
77693;SHT31;66984;47.404;18.836;2023-04-25T02:40:52;12.48;66.98
77693;SHT31;66984;47.404;18.836;2023-04-25T02:41:55;12.48;66.73
77693;SHT31;66984;47.404;18.836;2023-04-25T02:42:58;12.50;66.64
77693;SHT31;66984;47.404;18.836;2023-04-25T02:44:00;12.48;66.59
77693;SHT31;66984;47.404;18.836;2023-04-25T02:45:04;12.50;66.58
77693;SHT31;66984;47.404;18.836;2023-04-25T02:46:07;12.51;66.41
77693;SHT31;66984;47.404;18.836;2023-04-25T02:47:10;12.51;66.54
77693;SHT31;66984;47.404;18.836;2023-04-25T02:48:13;12.51;66.41
77693;SHT31;66984;47.404;18.836;2023-04-25T02:49:16;12.51;66.30
77693;SHT31;66984;47.404;18.836;2023-04-25T02:50:19;12.50;66.22
77693;SHT31;66984;47.404;18.836;2023-04-25T02:51:22;12.45;66.19
77693;SHT31;66984;47.404;18.836;2023-04-25T02:52:25;12.42;66.46
77693;SHT31;66984;47.404;18.836;2023-04-25T02:53:28;12.45;66.43
77693;SHT31;66984;47.404;18.836;2023-04-25T02:54:31;12.44;66.23
77693;SHT31;66984;47.404;18.836;2023-04-25T02:55:34;12.44;66.10
77693;SHT31;66984;47.404;18.836;2023-04-25T02:56:37;12.45;66.03
77693;SHT31;66984;47.404;18.836;2023-04-25T02:57:40;12.42;66.26
77693;SHT31;66984;47.404;18.836;2023-04-25T02:58:43;12.41;66.21
77693;SHT31;66984;47.404;18.836;2023-04-25T02:59:46;12.37;66.18
77693;SHT31;66984;47.404;18.836;2023-04-25T03:00:49;12.38;66.23
77693;SHT31;66984;47.404;18.836;2023-04-25T03:01:52;12.37;66.25
77693;SHT31;66984;47.404;18.836;2023-04-25T03:02:55;12.33;66.46
77693;SHT31;66984;47.404;18.836;2023-04-25T03:03:58;12.36;66.34
77693;SHT31;66984;47.404;18.836;2023-04-25T03:05:01;12.31;66.31
77693;SHT31;66984;47.404;18.836;2023-04-25T03:06:04;12.29;66.45
77693;SHT31;66984;47.404;18.836;2023-04-25T03:07:07;12.30;66.42
77693;SHT31;66984;47.404;18.836;2023-04-25T03:08:10;12.27;66.53
77693;SHT31;66984;47.404;18.836;2023-04-25T03:09:13;12.23;66.57
77693;SHT31;66984;47.404;18.836;2023-04-25T03:10:16;12.23;66.64
77693;SHT31;66984;47.404;18.836;2023-04-25T03:11:19;12.23;66.67
77693;SHT31;66984;47.404;18.836;2023-04-25T03:12:23;12.24;66.73
77693;SHT31;66984;47.404;18.836;2023-04-25T03:13:25;12.23;66.87
77693;SHT31;66984;47.404;18.836;2023-04-25T03:14:29;12.21;66.80
77693;SHT31;66984;47.404;18.836;2023-04-25T03:15:32;12.23;66.84
77693;SHT31;66984;47.404;18.836;2023-04-25T03:16:35;12.26;66.77
77693;SHT31;66984;47.404;18.836;2023-04-25T03:17:38;12.21;66.74
77693;SHT31;66984;47.404;18.836;2023-04-25T03:18:41;12.23;66.64
77693;SHT31;66984;47.404;18.836;2023-04-25T03:19:44;12.26;67.07
77693;SHT31;66984;47.404;18.836;2023-04-25T03:20:47;12.26;67.03
77693;SHT31;66984;47.404;18.836;2023-04-25T03:21:50;12.24;67.03
77693;SHT31;66984;47.404;18.836;2023-04-25T03:22:54;12.20;66.97
77693;SHT31;66984;47.404;18.836;2023-04-25T03:23:57;12.21;67.15
77693;SHT31;66984;47.404;18.836;2023-04-25T03:25:00;12.20;67.30
77693;SHT31;66984;47.404;18.836;2023-04-25T03:26:02;12.19;67.22
77693;SHT31;66984;47.404;18.836;2023-04-25T03:27:05;12.20;67.32
77693;SHT31;66984;47.404;18.836;2023-04-25T03:28:08;12.21;67.44
77693;SHT31;66984;47.404;18.836;2023-04-25T03:29:11;12.21;67.25
77693;SHT31;66984;47.404;18.836;2023-04-25T03:30:14;12.17;67.28
77693;SHT31;66984;47.404;18.836;2023-04-25T03:31:17;12.14;67.62
77693;SHT31;66984;47.404;18.836;2023-04-25T03:32:20;12.12;67.68
77693;SHT31;66984;47.404;18.836;2023-04-25T03:33:23;12.12;67.55
77693;SHT31;66984;47.404;18.836;2023-04-25T03:34:26;12.07;67.59
77693;SHT31;66984;47.404;18.836;2023-04-25T03:35:29;12.12;67.55
77693;SHT31;66984;47.404;18.836;2023-04-25T03:36:32;12.10;67.85
77693;SHT31;66984;47.404;18.836;2023-04-25T03:37:35;12.14;67.93
77693;SHT31;66984;47.404;18.836;2023-04-25T03:38:38;12.09;67.84
77693;SHT31;66984;47.404;18.836;2023-04-25T03:39:41;12.04;67.96
77693;SHT31;66984;47.404;18.836;2023-04-25T03:40:44;12.07;68.09
77693;SHT31;66984;47.404;18.836;2023-04-25T03:41:47;12.07;68.00
77693;SHT31;66984;47.404;18.836;2023-04-25T03:42:50;12.13;67.95
77693;SHT31;66984;47.404;18.836;2023-04-25T03:43:53;12.13;67.86
77693;SHT31;66984;47.404;18.836;2023-04-25T03:44:55;12.14;67.86
77693;SHT31;66984;47.404;18.836;2023-04-25T03:45:58;12.16;67.94
77693;SHT31;66984;47.404;18.836;2023-04-25T03:47:01;12.10;67.99
77693;SHT31;66984;47.404;18.836;2023-04-25T03:48:04;12.12;68.15
77693;SHT31;66984;47.404;18.836;2023-04-25T03:49:07;12.09;68.48
77693;SHT31;66984;47.404;18.836;2023-04-25T03:50:10;12.07;68.38
77693;SHT31;66984;47.404;18.836;2023-04-25T03:51:13;12.07;68.51
77693;SHT31;66984;47.404;18.836;2023-04-25T03:52:16;12.03;68.34
77693;SHT31;66984;47.404;18.836;2023-04-25T03:53:19;12.06;68.55
77693;SHT31;66984;47.404;18.836;2023-04-25T03:54:22;12.07;68.43
77693;SHT31;66984;47.404;18.836;2023-04-25T03:55:25;12.03;68.59
77693;SHT31;66984;47.404;18.836;2023-04-25T03:56:27;12.04;68.68
77693;SHT31;66984;47.404;18.836;2023-04-25T03:57:30;12.01;68.84
77693;SHT31;66984;47.404;18.836;2023-04-25T03:58:33;12.01;68.93
77693;SHT31;66984;47.404;18.836;2023-04-25T03:59:36;12.01;69.10
77693;SHT31;66984;47.404;18.836;2023-04-25T04:00:39;12.00;69.00
77693;SHT31;66984;47.404;18.836;2023-04-25T04:01:42;12.01;69.22
77693;SHT31;66984;47.404;18.836;2023-04-25T04:02:45;11.99;69.14
77693;SHT31;66984;47.404;18.836;2023-04-25T04:03:48;12.01;69.08
77693;SHT31;66984;47.404;18.836;2023-04-25T04:04:51;11.94;69.33
77693;SHT31;66984;47.404;18.836;2023-04-25T04:05:54;11.94;69.38
77693;SHT31;66984;47.404;18.836;2023-04-25T04:06:57;11.97;69.47
77693;SHT31;66984;47.404;18.836;2023-04-25T04:08:00;11.97;69.49
77693;SHT31;66984;47.404;18.836;2023-04-25T04:09:03;11.96;69.49
77693;SHT31;66984;47.404;18.836;2023-04-25T04:10:07;11.97;70.00
77693;SHT31;66984;47.404;18.836;2023-04-25T04:11:10;11.93;70.29
77693;SHT31;66984;47.404;18.836;2023-04-25T04:12:13;11.93;70.20
77693;SHT31;66984;47.404;18.836;2023-04-25T04:13:16;11.93;70.41
77693;SHT31;66984;47.404;18.836;2023-04-25T04:14:19;11.93;70.47
77693;SHT31;66984;47.404;18.836;2023-04-25T04:15:22;11.92;70.73
77693;SHT31;66984;47.404;18.836;2023-04-25T04:16:25;11.92;71.23
77693;SHT31;66984;47.404;18.836;2023-04-25T04:17:28;11.87;71.39
77693;SHT31;66984;47.404;18.836;2023-04-25T04:18:31;11.82;71.58
77693;SHT31;66984;47.404;18.836;2023-04-25T04:19:35;11.79;71.64
77693;SHT31;66984;47.404;18.836;2023-04-25T04:20:38;11.79;72.12
77693;SHT31;66984;47.404;18.836;2023-04-25T04:21:41;11.80;72.29
77693;SHT31;66984;47.404;18.836;2023-04-25T04:22:44;11.76;72.54
77693;SHT31;66984;47.404;18.836;2023-04-25T04:23:47;11.69;72.97
77693;SHT31;66984;47.404;18.836;2023-04-25T04:24:51;11.71;72.96
77693;SHT31;66984;47.404;18.836;2023-04-25T04:25:54;11.71;73.34
77693;SHT31;66984;47.404;18.836;2023-04-25T04:26:57;11.69;73.10
77693;SHT31;66984;47.404;18.836;2023-04-25T04:28:01;11.62;73.30
77693;SHT31;66984;47.404;18.836;2023-04-25T04:29:04;11.63;73.66
77693;SHT31;66984;47.404;18.836;2023-04-25T04:30:08;11.62;74.07
77693;SHT31;66984;47.404;18.836;2023-04-25T04:31:11;11.58;74.22
77693;SHT31;66984;47.404;18.836;2023-04-25T04:32:14;11.54;74.67
77693;SHT31;66984;47.404;18.836;2023-04-25T04:33:18;11.55;74.85
77693;SHT31;66984;47.404;18.836;2023-04-25T04:34:23;11.58;74.77
77693;SHT31;66984;47.404;18.836;2023-04-25T04:35:28;11.51;75.09
77693;SHT31;66984;47.404;18.836;2023-04-25T04:36:31;11.52;75.19
77693;SHT31;66984;47.404;18.836;2023-04-25T04:37:34;11.52;75.05
77693;SHT31;66984;47.404;18.836;2023-04-25T04:38:37;11.52;75.35
77693;SHT31;66984;47.404;18.836;2023-04-25T04:39:42;11.55;75.42
77693;SHT31;66984;47.404;18.836;2023-04-25T04:40:45;11.54;75.61
77693;SHT31;66984;47.404;18.836;2023-04-25T04:41:48;11.54;75.50
77693;SHT31;66984;47.404;18.836;2023-04-25T04:42:51;11.52;75.54
77693;SHT31;66984;47.404;18.836;2023-04-25T04:43:55;11.48;76.11
77693;SHT31;66984;47.404;18.836;2023-04-25T04:44:58;11.45;75.97
77693;SHT31;66984;47.404;18.836;2023-04-25T04:46:04;11.38;75.99
77693;SHT31;66984;47.404;18.836;2023-04-25T04:47:07;11.34;76.20
77693;SHT31;66984;47.404;18.836;2023-04-25T04:48:10;11.32;76.56
77693;SHT31;66984;47.404;18.836;2023-04-25T04:49:14;11.32;76.75
77693;SHT31;66984;47.404;18.836;2023-04-25T04:50:17;11.30;76.87
77693;SHT31;66984;47.404;18.836;2023-04-25T04:51:20;11.30;77.00
77693;SHT31;66984;47.404;18.836;2023-04-25T04:52:23;11.27;77.02
77693;SHT31;66984;47.404;18.836;2023-04-25T04:53:27;11.24;77.10
77693;SHT31;66984;47.404;18.836;2023-04-25T04:54:30;11.27;77.29
77693;SHT31;66984;47.404;18.836;2023-04-25T04:55:32;11.24;77.20
77693;SHT31;66984;47.404;18.836;2023-04-25T04:56:35;11.20;77.17
77693;SHT31;66984;47.404;18.836;2023-04-25T04:57:38;11.18;77.43
77693;SHT31;66984;47.404;18.836;2023-04-25T04:58:42;11.18;77.69
77693;SHT31;66984;47.404;18.836;2023-04-25T04:59:45;11.17;77.68
77693;SHT31;66984;47.404;18.836;2023-04-25T05:00:48;11.17;77.56
77693;SHT31;66984;47.404;18.836;2023-04-25T05:01:52;11.20;77.57
77693;SHT31;66984;47.404;18.836;2023-04-25T05:02:55;11.13;77.62
77693;SHT31;66984;47.404;18.836;2023-04-25T05:03:59;11.11;78.12
77693;SHT31;66984;47.404;18.836;2023-04-25T05:05:03;11.07;78.27
77693;SHT31;66984;47.404;18.836;2023-04-25T05:06:06;11.10;78.29
77693;SHT31;66984;47.404;18.836;2023-04-25T05:07:09;11.10;78.11
77693;SHT31;66984;47.404;18.836;2023-04-25T05:08:12;11.08;78.25
77693;SHT31;66984;47.404;18.836;2023-04-25T05:09:15;11.06;78.12
77693;SHT31;66984;47.404;18.836;2023-04-25T05:10:18;11.10;78.39
77693;SHT31;66984;47.404;18.836;2023-04-25T05:11:22;11.10;78.51
77693;SHT31;66984;47.404;18.836;2023-04-25T05:12:25;11.10;78.45
77693;SHT31;66984;47.404;18.836;2023-04-25T05:13:28;11.10;78.38
77693;SHT31;66984;47.404;18.836;2023-04-25T05:14:31;11.13;78.36
77693;SHT31;66984;47.404;18.836;2023-04-25T05:15:34;11.15;78.34
77693;SHT31;66984;47.404;18.836;2023-04-25T05:16:37;11.15;78.40
77693;SHT31;66984;47.404;18.836;2023-04-25T05:17:40;11.15;78.32
77693;SHT31;66984;47.404;18.836;2023-04-25T05:18:43;11.15;78.24
77693;SHT31;66984;47.404;18.836;2023-04-25T05:19:46;11.17;78.57
77693;SHT31;66984;47.404;18.836;2023-04-25T05:20:49;11.18;78.67
77693;SHT31;66984;47.404;18.836;2023-04-25T05:21:52;11.11;78.66
77693;SHT31;66984;47.404;18.836;2023-04-25T05:22:55;11.14;78.52
77693;SHT31;66984;47.404;18.836;2023-04-25T05:23:58;11.18;78.55
77693;SHT31;66984;47.404;18.836;2023-04-25T05:25:01;11.14;78.57
77693;SHT31;66984;47.404;18.836;2023-04-25T05:26:04;11.13;78.88
77693;SHT31;66984;47.404;18.836;2023-04-25T05:27:07;11.14;78.87
77693;SHT31;66984;47.404;18.836;2023-04-25T05:28:12;11.11;78.94
77693;SHT31;66984;47.404;18.836;2023-04-25T05:29:15;11.06;79.05
77693;SHT31;66984;47.404;18.836;2023-04-25T05:30:18;11.10;79.14
77693;SHT31;66984;47.404;18.836;2023-04-25T05:31:21;11.11;78.89
77693;SHT31;66984;47.404;18.836;2023-04-25T05:32:24;11.10;79.04
77693;SHT31;66984;47.404;18.836;2023-04-25T05:33:27;11.15;79.08
77693;SHT31;66984;47.404;18.836;2023-04-25T05:34:30;11.20;79.12
77693;SHT31;66984;47.404;18.836;2023-04-25T05:35:33;11.18;79.30
77693;SHT31;66984;47.404;18.836;2023-04-25T05:36:36;11.20;79.02
77693;SHT31;66984;47.404;18.836;2023-04-25T05:37:39;11.17;79.50
77693;SHT31;66984;47.404;18.836;2023-04-25T05:38:42;11.17;79.32
77693;SHT31;66984;47.404;18.836;2023-04-25T05:39:45;11.18;79.38
77693;SHT31;66984;47.404;18.836;2023-04-25T05:40:48;11.20;79.54
77693;SHT31;66984;47.404;18.836;2023-04-25T05:41:51;11.21;79.54
77693;SHT31;66984;47.404;18.836;2023-04-25T05:42:54;11.18;79.39
77693;SHT31;66984;47.404;18.836;2023-04-25T05:43:57;11.18;79.69
77693;SHT31;66984;47.404;18.836;2023-04-25T05:45:00;11.23;79.57
77693;SHT31;66984;47.404;18.836;2023-04-25T05:46:03;11.23;79.34
77693;SHT31;66984;47.404;18.836;2023-04-25T05:47:06;11.18;79.28
77693;SHT31;66984;47.404;18.836;2023-04-25T05:48:09;11.20;79.23
77693;SHT31;66984;47.404;18.836;2023-04-25T05:49:12;11.20;78.86
77693;SHT31;66984;47.404;18.836;2023-04-25T05:50:17;11.24;79.49
77693;SHT31;66984;47.404;18.836;2023-04-25T05:51:20;11.24;79.03
77693;SHT31;66984;47.404;18.836;2023-04-25T05:52:23;11.23;79.13
77693;SHT31;66984;47.404;18.836;2023-04-25T05:53:27;11.27;78.91
77693;SHT31;66984;47.404;18.836;2023-04-25T05:54:30;11.31;78.96
77693;SHT31;66984;47.404;18.836;2023-04-25T05:55:33;11.34;79.42
77693;SHT31;66984;47.404;18.836;2023-04-25T05:56:36;11.31;79.25
77693;SHT31;66984;47.404;18.836;2023-04-25T05:57:39;11.31;78.82
77693;SHT31;66984;47.404;18.836;2023-04-25T05:58:43;11.31;79.20
77693;SHT31;66984;47.404;18.836;2023-04-25T05:59:46;11.32;79.10
77693;SHT31;66984;47.404;18.836;2023-04-25T06:00:49;11.35;79.25
77693;SHT31;66984;47.404;18.836;2023-04-25T06:01:52;11.39;78.94
77693;SHT31;66984;47.404;18.836;2023-04-25T06:02:55;11.45;78.57
77693;SHT31;66984;47.404;18.836;2023-04-25T06:03:58;11.42;78.10
77693;SHT31;66984;47.404;18.836;2023-04-25T06:05:02;11.42;77.82
77693;SHT31;66984;47.404;18.836;2023-04-25T06:06:08;11.42;77.85
77693;SHT31;66984;47.404;18.836;2023-04-25T06:07:12;11.45;77.65
77693;SHT31;66984;47.404;18.836;2023-04-25T06:08:15;11.42;77.24
77693;SHT31;66984;47.404;18.836;2023-04-25T06:09:18;11.39;77.47
77693;SHT31;66984;47.404;18.836;2023-04-25T06:10:21;11.39;77.50
77693;SHT31;66984;47.404;18.836;2023-04-25T06:11:25;11.38;77.33
77693;SHT31;66984;47.404;18.836;2023-04-25T06:12:28;11.38;78.23
77693;SHT31;66984;47.404;18.836;2023-04-25T06:13:30;11.39;77.90
77693;SHT31;66984;47.404;18.836;2023-04-25T06:14:33;11.42;77.98
77693;SHT31;66984;47.404;18.836;2023-04-25T06:15:36;11.48;77.89
77693;SHT31;66984;47.404;18.836;2023-04-25T06:16:39;11.46;77.98
77693;SHT31;66984;47.404;18.836;2023-04-25T06:17:42;11.54;77.66
77693;SHT31;66984;47.404;18.836;2023-04-25T06:18:45;11.50;77.52
77693;SHT31;66984;47.404;18.836;2023-04-25T06:19:49;11.52;77.60
77693;SHT31;66984;47.404;18.836;2023-04-25T06:20:51;11.52;77.81
77693;SHT31;66984;47.404;18.836;2023-04-25T06:21:54;11.54;77.29
77693;SHT31;66984;47.404;18.836;2023-04-25T06:22:57;11.57;77.02
77693;SHT31;66984;47.404;18.836;2023-04-25T06:24:00;11.59;76.93
77693;SHT31;66984;47.404;18.836;2023-04-25T06:25:03;11.62;76.99
77693;SHT31;66984;47.404;18.836;2023-04-25T06:26:07;11.65;76.79
77693;SHT31;66984;47.404;18.836;2023-04-25T06:27:09;11.72;76.80
77693;SHT31;66984;47.404;18.836;2023-04-25T06:28:12;11.72;76.63
77693;SHT31;66984;47.404;18.836;2023-04-25T06:29:15;11.79;76.74
77693;SHT31;66984;47.404;18.836;2023-04-25T06:30:18;11.76;76.88
77693;SHT31;66984;47.404;18.836;2023-04-25T06:31:25;11.78;76.40
77693;SHT31;66984;47.404;18.836;2023-04-25T06:32:28;11.78;76.04